Time;durP1;ratioP1;P1;durP2;ratioP2;P2;SDS_P1;SDS_P2;PMS_P1;PMS_P2;Temp;Humidity;BMP_temperature;BMP_pressure;BME280_temperature;BME280_humidity;BME280_pressure;Samples;Min_cycle;Max_cycle;Signal;HPM_P1;HPM_P2
2022/08/07 00:00:40;;;;;;;;;;;23.80;98.40;;;;;;4137459;28;19933;-57
2022/08/07 00:02:42;;;;;;;;;;;23.90;98.20;;;;;;4147234;28;19933;-56
2022/08/07 00:04:45;;;;;;;;;;;24.00;98.10;;;;;;4133938;28;19940;-58
2022/08/07 00:06:47;;;;;;;;;;;24.00;98.50;;;;;;4135456;28;19936;-56
2022/08/07 00:08:56;;;;;;;;;;;23.90;98.50;;;;;;4147551;28;20011;-56
2022/08/07 00:10:58;;;;;;;;;;;23.60;99.00;;;;;;4147253;28;19960;-55
2022/08/07 00:13:05;;;;;;;;;;;23.50;99.70;;;;;;4143735;28;19922;-55
2022/08/07 00:15:25;;;;;;;;;;;23.60;98.90;;;;;;4129656;28;19925;-57
2022/08/07 00:17:41;;;;;;;;;;;23.60;98.60;;;;;;4145520;28;19933;-56
2022/08/07 00:19:44;;;;;;;;;;;23.60;98.50;;;;;;4147140;28;19928;-57
2022/08/07 00:22:09;;;;;;;;;;;23.60;98.50;;;;;;4146935;28;19925;-56
2022/08/07 00:24:12;;;;;;;;;;;23.50;99.20;;;;;;4146972;28;19980;-56
2022/08/07 00:26:21;;;;;;;;;;;23.50;98.90;;;;;;4159143;28;20367;-55
2022/08/07 00:28:44;;;;;;;;;;;23.40;99.20;;;;;;4130374;28;19982;-56
2022/08/07 00:30:59;;;;;;;;;;;23.40;99.40;;;;;;4162033;28;19921;-56
2022/08/07 00:33:01;;;;;;;;;;;23.40;99.70;;;;;;4136847;28;19953;-55
2022/08/07 00:35:05;;;;;;;;;;;23.40;99.90;;;;;;4130607;28;20017;-56
2022/08/07 00:37:08;;;;;;;;;;;23.30;99.90;;;;;;4130622;28;19927;-56
2022/08/07 00:39:12;;;;;;;;;;;23.20;99.90;;;;;;4137502;28;19921;-56
2022/08/07 00:41:31;;;;;;;;;;;23.20;99.90;;;;;;4145514;28;19979;-56
2022/08/07 00:43:33;;;;;;;;;;;23.10;99.90;;;;;;4136410;28;19925;-56
2022/08/07 00:46:15;;;;;;;;;;;22.90;99.90;;;;;;4146379;28;19925;-56
2022/08/07 00:48:29;;;;;;;;;;;23.00;99.90;;;;;;4145336;28;19928;-57
2022/08/07 00:50:33;;;;;;;;;;;23.00;99.90;;;;;;4146928;28;20377;-56
2022/08/07 00:52:48;;;;;;;;;;;23.00;99.90;;;;;;4146420;28;19936;-56
2022/08/07 00:54:51;;;;;;;;;;;22.90;99.90;;;;;;4139268;28;19921;-56
2022/08/07 00:57:04;;;;;;;;;;;22.90;99.90;;;;;;4130605;28;19996;-57
2022/08/07 00:59:07;;;;;;;;;;;22.90;99.90;;;;;;4145270;28;19930;-57
2022/08/07 01:01:10;;;;;;;;;;;22.80;99.90;;;;;;4139993;28;19928;-56
2022/08/07 01:03:13;;;;;;;;;;;22.80;99.90;;;;;;4130169;28;20021;-56
2022/08/07 01:05:17;;;;;;;;;;;22.80;99.90;;;;;;4130468;28;19921;-56
2022/08/07 01:07:23;;;;;;;;;;;22.80;99.90;;;;;;4138671;28;19925;-56
2022/08/07 01:09:29;;;;;;;;;;;22.80;99.90;;;;;;4144783;28;20649;-57
2022/08/07 01:11:54;;;;;;;;;;;22.80;99.90;;;;;;4144936;28;20361;-56
2022/08/07 01:14:10;;;;;;;;;;;22.70;99.90;;;;;;4146427;28;19924;-56
2022/08/07 01:16:13;;;;;;;;;;;22.90;99.90;;;;;;4146947;28;19925;-55
2022/08/07 01:18:15;;;;;;;;;;;22.90;99.90;;;;;;4142329;28;19925;-56
2022/08/07 01:20:25;;;;;;;;;;;22.90;99.90;;;;;;4140708;28;19988;-57
2022/08/07 01:22:31;;;;;;;;;;;22.90;99.90;;;;;;4130452;28;19921;-57
2022/08/07 01:24:36;;;;;;;;;;;22.80;99.90;;;;;;4144122;28;19958;-56
2022/08/07 01:26:41;;;;;;;;;;;22.80;99.90;;;;;;4139583;28;19932;-55
2022/08/07 01:28:47;;;;;;;;;;;22.90;99.90;;;;;;4128537;28;20353;-56
2022/08/07 01:30:50;;;;;;;;;;;22.80;99.90;;;;;;4142995;28;20435;-56
2022/08/07 01:33:12;;;;;;;;;;;22.70;99.90;;;;;;4139415;28;19964;-56
2022/08/07 01:35:23;;;;;;;;;;;22.70;99.90;;;;;;4130190;28;19921;-56
2022/08/07 01:37:45;;;;;;;;;;;22.60;99.90;;;;;;4129703;28;20274;-56
2022/08/07 01:39:57;;;;;;;;;;;22.50;99.90;;;;;;4130142;28;19953;-55
2022/08/07 01:42:00;;;;;;;;;;;22.50;99.90;;;;;;4129970;28;20340;-56
2022/08/07 01:44:23;;;;;;;;;;;22.40;99.90;;;;;;4151407;28;19921;-57
2022/08/07 01:46:33;;;;;;;;;;;22.40;99.90;;;;;;4144774;28;20439;-57
2022/08/07 01:48:55;;;;;;;;;;;22.30;99.90;;;;;;4145920;28;19961;-56
2022/08/07 01:51:05;;;;;;;;;;;22.40;99.90;;;;;;4146270;28;19925;-56
2022/08/07 01:53:35;;;;;;;;;;;22.30;99.90;;;;;;4129878;28;19922;-58
2022/08/07 01:56:01;;;;;;;;;;;22.40;99.90;;;;;;4139914;28;20340;-56
2022/08/07 01:58:07;;;;;;;;;;;22.20;99.90;;;;;;4144484;28;19972;-56
2022/08/07 02:00:30;;;;;;;;;;;22.10;99.90;;;;;;4129748;28;20369;-57
2022/08/07 02:02:37;;;;;;;;;;;22.00;99.90;;;;;;4141573;28;19948;-56
2022/08/07 02:05:06;;;;;;;;;;;22.00;99.90;;;;;;4140097;28;19925;-56
2022/08/07 02:07:10;;;;;;;;;;;21.90;99.90;;;;;;4131346;28;20369;-56
2022/08/07 02:09:16;;;;;;;;;;;21.80;99.90;;;;;;4131615;28;19972;-55
2022/08/07 02:11:41;;;;;;;;;;;21.80;99.90;;;;;;4137362;28;19926;-57
2022/08/07 02:14:06;;;;;;;;;;;21.90;99.90;;;;;;4145675;28;19925;-56
2022/08/07 02:16:10;;;;;;;;;;;22.00;99.90;;;;;;4144351;28;19922;-55
2022/08/07 02:18:13;;;;;;;;;;;22.00;99.90;;;;;;4145295;28;19922;-56
2022/08/07 02:20:19;;;;;;;;;;;22.00;99.90;;;;;;4145270;28;20351;-56
2022/08/07 02:22:26;;;;;;;;;;;21.90;99.90;;;;;;4132999;28;20300;-56
2022/08/07 02:24:33;;;;;;;;;;;22.00;99.90;;;;;;4146980;28;20385;-56
2022/08/07 02:26:36;;;;;;;;;;;22.00;99.90;;;;;;4148955;28;19983;-56
2022/08/07 02:28:39;;;;;;;;;;;22.00;99.90;;;;;;4132566;28;19933;-56
2022/08/07 02:30:42;;;;;;;;;;;22.00;99.90;;;;;;4139698;28;19925;-55
2022/08/07 02:32:44;;;;;;;;;;;21.90;99.90;;;;;;4148923;28;20419;-56
2022/08/07 02:35:04;;;;;;;;;;;21.90;99.90;;;;;;4132774;28;19929;-56
2022/08/07 02:37:10;;;;;;;;;;;21.90;99.90;;;;;;4140164;28;19929;-55
2022/08/07 02:39:14;;;;;;;;;;;21.80;99.90;;;;;;4148949;28;20305;-56
2022/08/07 02:41:19;;;;;;;;;;;21.80;99.90;;;;;;4132688;28;20020;-57
2022/08/07 02:43:25;;;;;;;;;;;21.70;99.90;;;;;;4138936;28;20016;-56
2022/08/07 02:45:30;;;;;;;;;;;21.60;99.90;;;;;;4148970;28;19925;-56
2022/08/07 02:48:02;;;;;;;;;;;21.70;99.90;;;;;;4132535;28;20008;-56
2022/08/07 02:50:07;;;;;;;;;;;21.50;99.90;;;;;;4140172;28;20324;-55
2022/08/07 02:52:14;;;;;;;;;;;21.50;99.90;;;;;;4148320;28;19925;-56
2022/08/07 02:54:19;;;;;;;;;;;21.40;99.90;;;;;;4148859;28;20475;-55
2022/08/07 02:56:24;;;;;;;;;;;21.40;99.90;;;;;;4140176;28;19921;-56
2022/08/07 02:58:29;;;;;;;;;;;21.40;99.90;;;;;;4132255;28;19926;-56
2022/08/07 03:00:37;;;;;;;;;;;21.40;99.90;;;;;;4132346;28;20630;-56
2022/08/07 03:02:41;;;;;;;;;;;21.50;99.90;;;;;;4132291;28;19925;-56
2022/08/07 03:04:57;;;;;;;;;;;21.50;99.90;;;;;;4132214;28;19949;-56
2022/08/07 03:07:01;;;;;;;;;;;21.30;99.90;;;;;;4148158;28;20377;-55
2022/08/07 03:09:20;;;;;;;;;;;21.20;99.90;;;;;;4148066;28;20278;-57
2022/08/07 03:11:44;;;;;;;;;;;21.30;99.90;;;;;;4147890;28;19929;-57
2022/08/07 03:13:58;;;;;;;;;;;21.20;99.90;;;;;;4148043;28;19921;-56
2022/08/07 03:16:13;;;;;;;;;;;21.20;99.90;;;;;;4134424;28;20286;-56
2022/08/07 03:18:16;;;;;;;;;;;21.30;99.90;;;;;;4137783;28;20466;-55
2022/08/07 03:20:22;;;;;;;;;;;21.40;99.90;;;;;;4131843;28;19972;-55
2022/08/07 03:22:27;;;;;;;;;;;21.50;99.90;;;;;;4143300;28;20297;-56
2022/08/07 03:24:33;;;;;;;;;;;21.50;99.90;;;;;;4148029;28;19921;-57
2022/08/07 03:26:37;;;;;;;;;;;21.50;99.90;;;;;;4148113;28;20385;-56
2022/08/07 03:28:47;;;;;;;;;;;21.50;99.90;;;;;;4148083;28;20032;-56
2022/08/07 03:30:49;;;;;;;;;;;21.50;99.90;;;;;;4147824;28;19991;-55
2022/08/07 03:32:53;;;;;;;;;;;21.50;99.90;;;;;;4146428;28;20388;-55
2022/08/07 03:35:02;;;;;;;;;;;21.50;99.90;;;;;;4147697;28;20554;-56
2022/08/07 03:37:20;;;;;;;;;;;21.50;99.90;;;;;;4147827;28;19925;-56
2022/08/07 03:39:28;;;;;;;;;;;21.60;99.90;;;;;;4147869;28;19948;-55
2022/08/07 03:41:50;;;;;;;;;;;21.50;99.90;;;;;;4147351;28;19922;-56
2022/08/07 03:43:53;;;;;;;;;;;21.50;99.90;;;;;;4146361;28;19925;-56
2022/08/07 03:46:02;;;;;;;;;;;21.40;99.90;;;;;;4147808;28;19953;-57
2022/08/07 03:48:04;;;;;;;;;;;21.30;99.90;;;;;;4134239;28;19944;-56
2022/08/07 03:50:11;;;;;;;;;;;21.30;99.90;;;;;;4139697;28;19921;-56
2022/08/07 03:52:14;;;;;;;;;;;21.40;99.90;;;;;;4147626;28;19921;-56
2022/08/07 03:54:23;;;;;;;;;;;21.30;99.90;;;;;;4133151;28;19925;-56
2022/08/07 03:56:39;;;;;;;;;;;21.30;99.90;;;;;;4136692;28;19925;-57
2022/08/07 03:58:41;;;;;;;;;;;21.40;99.90;;;;;;4147718;28;20396;-55
2022/08/07 04:01:05;;;;;;;;;;;21.50;99.90;;;;;;4135750;28;19925;-55
2022/08/07 04:03:08;;;;;;;;;;;21.50;99.90;;;;;;4139593;28;20312;-56
2022/08/07 04:05:13;;;;;;;;;;;21.40;99.90;;;;;;4147436;28;19921;-56
2022/08/07 04:07:16;;;;;;;;;;;21.40;99.90;;;;;;4135883;28;19968;-56
2022/08/07 04:09:22;;;;;;;;;;;21.30;99.90;;;;;;4147315;28;19925;-56
2022/08/07 04:11:25;;;;;;;;;;;21.20;99.90;;;;;;4147302;28;19928;-57
2022/08/07 04:13:48;;;;;;;;;;;21.20;99.90;;;;;;4147374;28;20286;-56
2022/08/07 04:16:11;;;;;;;;;;;21.20;99.90;;;;;;4136916;28;19972;-56
2022/08/07 04:18:14;;;;;;;;;;;21.10;99.90;;;;;;4141226;28;20016;-57
2022/08/07 04:20:38;;;;;;;;;;;21.20;99.90;;;;;;4142916;28;20277;-56
2022/08/07 04:22:41;;;;;;;;;;;21.10;99.90;;;;;;4136851;28;19921;-56
2022/08/07 04:24:55;;;;;;;;;;;21.10;99.90;;;;;;4130806;28;19929;-55
2022/08/07 04:27:08;;;;;;;;;;;21.10;99.90;;;;;;4130890;28;19922;-56
2022/08/07 04:29:24;;;;;;;;;;;21.00;99.90;;;;;;4142205;28;19949;-56
2022/08/07 04:31:27;;;;;;;;;;;21.00;99.90;;;;;;4145623;28;19921;-56
2022/08/07 04:33:40;;;;;;;;;;;20.90;99.90;;;;;;4147271;28;19956;-56
2022/08/07 04:35:46;;;;;;;;;;;20.90;99.90;;;;;;4135192;28;20270;-57
2022/08/07 04:37:53;;;;;;;;;;;20.90;99.90;;;;;;4130737;28;19968;-55
2022/08/07 04:40:05;;;;;;;;;;;20.90;99.90;;;;;;4130699;28;19921;-55
2022/08/07 04:42:13;;;;;;;;;;;20.90;99.90;;;;;;4143414;28;19921;-55
2022/08/07 04:44:16;;;;;;;;;;;21.00;99.90;;;;;;4145987;28;19932;-57
2022/08/07 04:46:41;;;;;;;;;;;21.00;99.90;;;;;;4145496;28;19926;-56
2022/08/07 04:49:21;;;;;;;;;;;21.00;99.90;;;;;;4146782;28;19991;-55
2022/08/07 04:51:45;;;;;;;;;;;20.90;99.90;;;;;;4155501;28;19925;-56
2022/08/07 04:53:51;;;;;;;;;;;20.90;99.90;;;;;;4143103;28;19921;-55
2022/08/07 04:56:20;;;;;;;;;;;21.00;99.90;;;;;;4130411;28;19984;-57
2022/08/07 04:58:53;;;;;;;;;;;20.80;99.90;;;;;;4130444;28;19926;-55
2022/08/07 05:01:28;;;;;;;;;;;20.90;99.90;;;;;;4142739;28;19922;-56
2022/08/07 05:03:42;;;;;;;;;;;20.90;99.90;;;;;;4144749;28;19925;-56
2022/08/07 05:06:07;;;;;;;;;;;20.90;99.90;;;;;;4146766;28;20325;-56
2022/08/07 05:08:34;;;;;;;;;;;20.90;99.90;;;;;;4141193;28;19952;-55
2022/08/07 05:11:09;;;;;;;;;;;21.00;99.90;;;;;;4145166;28;20491;-57
2022/08/07 05:13:27;;;;;;;;;;;21.00;99.90;;;;;;4146404;28;19928;-56
2022/08/07 05:15:50;;;;;;;;;;;21.20;99.90;;;;;;4146212;28;19929;-56
2022/08/07 05:17:55;;;;;;;;;;;21.10;99.90;;;;;;4145948;28;20028;-57
2022/08/07 05:19:59;;;;;;;;;;;21.20;99.90;;;;;;4145821;28;19932;-56
2022/08/07 05:22:02;;;;;;;;;;;21.30;99.90;;;;;;4143635;28;19921;-57
2022/08/07 05:24:09;;;;;;;;;;;21.30;99.90;;;;;;4130133;28;20008;-55
2022/08/07 05:26:15;;;;;;;;;;;21.50;99.90;;;;;;4137848;28;19926;-56
2022/08/07 05:28:25;;;;;;;;;;;21.60;99.90;;;;;;4146518;28;19921;-56
2022/08/07 05:30:30;;;;;;;;;;;21.70;99.90;;;;;;4129949;28;19922;-57
2022/08/07 05:32:39;;;;;;;;;;;21.70;99.90;;;;;;4143518;28;19928;-56
2022/08/07 05:34:42;;;;;;;;;;;21.80;99.90;;;;;;4146652;28;19926;-56
2022/08/07 05:36:46;;;;;;;;;;;21.90;99.90;;;;;;4130598;28;20278;-56
2022/08/07 05:38:52;;;;;;;;;;;22.00;99.90;;;;;;4130060;28;19922;-56
2022/08/07 05:41:03;;;;;;;;;;;22.00;99.90;;;;;;4136746;28;19925;-56
2022/08/07 05:43:13;;;;;;;;;;;22.10;99.90;;;;;;4142982;28;19933;-57
2022/08/07 05:45:18;;;;;;;;;;;22.20;99.90;;;;;;4145470;28;19928;-56
2022/08/07 05:47:41;;;;;;;;;;;22.20;99.90;;;;;;4145407;28;20048;-57
2022/08/07 05:50:05;;;;;;;;;;;22.30;99.90;;;;;;4152128;28;20418;-56
2022/08/07 05:52:08;;;;;;;;;;;22.50;99.90;;;;;;4145933;28;20337;-56
2022/08/07 05:54:17;;;;;;;;;;;22.60;99.90;;;;;;4143430;28;20021;-55
2022/08/07 05:56:35;;;;;;;;;;;22.50;99.90;;;;;;4152623;28;19954;-58
2022/08/07 05:58:42;;;;;;;;;;;22.60;99.90;;;;;;4145442;28;19921;-56
2022/08/07 06:00:58;;;;;;;;;;;22.80;99.90;;;;;;4143158;28;19925;-57
2022/08/07 06:03:03;;;;;;;;;;;23.00;99.90;;;;;;4133086;28;20433;-56
2022/08/07 06:05:08;;;;;;;;;;;23.40;99.90;;;;;;4133039;28;19921;-57
2022/08/07 06:07:14;;;;;;;;;;;23.50;99.90;;;;;;4136847;28;19921;-56
2022/08/07 06:09:30;;;;;;;;;;;23.40;99.90;;;;;;4138511;28;19980;-56
2022/08/07 06:11:53;;;;;;;;;;;23.70;99.90;;;;;;4148504;28;19925;-56
2022/08/07 06:13:55;;;;;;;;;;;23.90;99.90;;;;;;4149171;28;19927;-57
2022/08/07 06:16:16;;;;;;;;;;;23.90;99.90;;;;;;4148999;28;19952;-56
2022/08/07 06:18:21;;;;;;;;;;;24.10;99.90;;;;;;4143786;28;19921;-57
2022/08/07 06:20:36;;;;;;;;;;;24.20;99.90;;;;;;4148856;28;20407;-57
2022/08/07 06:22:52;;;;;;;;;;;24.20;99.90;;;;;;4147625;28;19921;-57
2022/08/07 06:25:08;;;;;;;;;;;24.20;99.90;;;;;;4132841;28;20318;-57
2022/08/07 06:27:21;;;;;;;;;;;24.30;99.90;;;;;;4143557;28;19984;-56
2022/08/07 06:29:47;;;;;;;;;;;24.40;99.90;;;;;;4148406;28;19972;-57
2022/08/07 06:31:51;;;;;;;;;;;24.60;99.90;;;;;;4147692;28;19992;-56
2022/08/07 06:33:54;;;;;;;;;;;24.70;99.90;;;;;;4135548;28;19960;-56
2022/08/07 06:35:56;;;;;;;;;;;24.90;99.90;;;;;;4137212;28;19921;-57
2022/08/07 06:38:13;;;;;;;;;;;25.00;99.90;;;;;;4132610;28;19972;-56
2022/08/07 06:40:21;;;;;;;;;;;25.20;99.90;;;;;;4145980;28;20309;-57
2022/08/07 06:42:25;;;;;;;;;;;25.40;99.90;;;;;;4143903;28;19928;-57
2022/08/07 06:44:36;;;;;;;;;;;25.60;99.90;;;;;;4132289;28;19931;-58
2022/08/07 06:46:42;;;;;;;;;;;25.60;99.90;;;;;;4145407;28;20019;-57
2022/08/07 06:48:44;;;;;;;;;;;25.70;99.90;;;;;;4144018;28;19922;-58
2022/08/07 06:50:48;;;;;;;;;;;25.90;99.90;;;;;;4144110;28;20017;-57
2022/08/07 06:52:52;;;;;;;;;;;26.20;99.90;;;;;;4148647;28;19929;-58
2022/08/07 06:54:56;;;;;;;;;;;26.10;99.90;;;;;;4144607;28;19922;-57
2022/08/07 06:57:19;;;;;;;;;;;26.40;99.90;;;;;;4145928;28;19944;-57
2022/08/07 06:59:31;;;;;;;;;;;26.40;99.90;;;;;;4143802;28;19928;-57
2022/08/07 07:01:56;;;;;;;;;;;26.40;99.90;;;;;;4154837;28;19921;-56
2022/08/07 07:03:59;;;;;;;;;;;26.80;99.90;;;;;;4141117;28;20055;-57
2022/08/07 07:06:18;;;;;;;;;;;26.80;99.90;;;;;;4144436;28;20385;-56
2022/08/07 07:08:28;;;;;;;;;;;26.70;99.90;;;;;;4143678;28;19925;-56
2022/08/07 07:10:36;;;;;;;;;;;26.90;99.90;;;;;;4147788;28;19928;-57
2022/08/07 07:12:48;;;;;;;;;;;26.80;99.90;;;;;;4147123;28;19925;-57
2022/08/07 07:15:15;;;;;;;;;;;26.80;99.90;;;;;;4147142;28;20305;-57
2022/08/07 07:17:46;;;;;;;;;;;26.90;99.90;;;;;;4147671;28;19929;-58
2022/08/07 07:19:52;;;;;;;;;;;27.30;99.90;;;;;;4148065;28;19921;-57
2022/08/07 07:22:00;;;;;;;;;;;27.30;99.90;;;;;;4147757;28;19928;-56
2022/08/07 07:24:15;;;;;;;;;;;27.30;99.90;;;;;;4141649;28;19944;-57
2022/08/07 07:26:20;;;;;;;;;;;27.40;99.90;;;;;;4148114;28;19928;-58
2022/08/07 07:28:43;;;;;;;;;;;27.40;99.90;;;;;;4131700;28;20013;-56
2022/08/07 07:31:22;;;;;;;;;;;27.40;99.90;;;;;;4142586;28;20016;-56
2022/08/07 07:33:26;;;;;;;;;;;27.90;99.90;;;;;;4139237;28;19921;-56
2022/08/07 07:35:32;;;;;;;;;;;27.80;99.90;;;;;;4148179;28;19926;-57
2022/08/07 07:37:48;;;;;;;;;;;27.70;99.90;;;;;;4161473;28;19920;-57
2022/08/07 07:40:01;;;;;;;;;;;28.00;99.90;;;;;;4141416;28;19926;-57
2022/08/07 07:42:25;;;;;;;;;;;28.00;99.90;;;;;;4139567;28;19976;-58
2022/08/07 07:44:37;;;;;;;;;;;28.30;99.90;;;;;;4145558;28;19944;-57
2022/08/07 07:46:40;;;;;;;;;;;28.30;99.90;;;;;;4147434;28;19975;-57
2022/08/07 07:49:01;;;;;;;;;;;28.30;99.90;;;;;;4146129;28;19976;-57
2022/08/07 07:51:24;;;;;;;;;;;28.30;99.90;;;;;;4131701;28;19926;-57
2022/08/07 07:53:29;;;;;;;;;;;28.80;99.90;;;;;;4142675;28;20133;-57
2022/08/07 07:55:32;;;;;;;;;;;28.70;99.90;;;;;;4144270;28;19967;-57
2022/08/07 07:57:39;;;;;;;;;;;28.90;99.90;;;;;;4147514;28;20012;-57
2022/08/07 07:59:47;;;;;;;;;;;28.90;99.90;;;;;;4147640;28;19932;-56
2022/08/07 08:01:55;;;;;;;;;;;28.90;99.90;;;;;;4144470;28;19953;-57
2022/08/07 08:04:06;;;;;;;;;;;28.90;99.90;;;;;;4131442;28;19921;-58
2022/08/07 08:06:13;;;;;;;;;;;28.90;99.90;;;;;;4144295;28;19921;-57
2022/08/07 08:08:17;;;;;;;;;;;29.10;99.90;;;;;;4147184;28;20344;-56
2022/08/07 08:10:39;;;;;;;;;;;29.20;99.90;;;;;;4147280;28;19922;-56
2022/08/07 08:12:42;;;;;;;;;;;29.20;99.90;;;;;;4147143;28;20098;-58
2022/08/07 08:15:00;;;;;;;;;;;29.30;99.90;;;;;;4141678;28;19926;-56
2022/08/07 08:17:09;;;;;;;;;;;29.10;99.90;;;;;;4132199;28;19925;-56
2022/08/07 08:19:37;;;;;;;;;;;29.20;99.90;;;;;;4128757;28;20438;-57
2022/08/07 08:27:04;;;;;;;;;;;29.30;99.90;;;;;;4140883;28;19975;-57
2022/08/07 08:29:13;;;;;;;;;;;29.40;99.90;;;;;;4160928;28;20388;-56
2022/08/07 08:31:23;;;;;;;;;;;29.50;99.90;;;;;;4153962;28;19952;-57
2022/08/07 08:33:47;;;;;;;;;;;29.30;99.90;;;;;;4146844;28;20080;-57
2022/08/07 08:35:58;;;;;;;;;;;29.40;99.90;;;;;;4146861;28;19925;-57
2022/08/07 08:38:01;;;;;;;;;;;29.70;99.90;;;;;;4134308;28;19922;-57
2022/08/07 08:40:14;;;;;;;;;;;30.00;99.90;;;;;;4138748;28;20453;-57
2022/08/07 08:42:17;;;;;;;;;;;30.20;99.90;;;;;;4145755;28;19925;-57
2022/08/07 08:44:29;;;;;;;;;;;30.10;99.90;;;;;;4144834;28;19925;-57
2022/08/07 08:46:39;;;;;;;;;;;30.00;99.90;;;;;;4144697;28;19946;-59
2022/08/07 08:48:43;;;;;;;;;;;29.90;99.90;;;;;;4139808;28;19925;-57
2022/08/07 08:50:47;;;;;;;;;;;29.80;99.90;;;;;;4146474;28;19925;-58
2022/08/07 08:53:05;;;;;;;;;;;29.90;99.60;;;;;;4144963;28;19926;-58
2022/08/07 08:55:18;;;;;;;;;;;29.90;99.70;;;;;;4137577;28;19999;-57
2022/08/07 08:57:42;;;;;;;;;;;29.90;99.90;;;;;;4146264;28;19953;-58
2022/08/07 08:59:58;;;;;;;;;;;30.00;99.40;;;;;;4146241;28;20377;-57
2022/08/07 09:02:24;;;;;;;;;;;29.60;99.20;;;;;;4161142;28;19921;-57
2022/08/07 09:04:45;;;;;;;;;;;29.80;98.90;;;;;;4130328;28;19925;-58
2022/08/07 09:07:10;;;;;;;;;;;29.70;99.20;;;;;;4143917;28;19925;-57
2022/08/07 09:09:30;;;;;;;;;;;29.90;99.10;;;;;;4144518;28;19948;-57
2022/08/07 09:11:42;;;;;;;;;;;30.10;99.00;;;;;;4146109;28;20289;-57
2022/08/07 09:14:02;;;;;;;;;;;30.40;98.80;;;;;;4142672;28;19965;-57
2022/08/07 09:16:12;;;;;;;;;;;30.20;98.40;;;;;;4140241;28;19922;-57
2022/08/07 09:18:30;;;;;;;;;;;30.40;98.70;;;;;;4135908;28;19957;-57
2022/08/07 09:20:47;;;;;;;;;;;30.30;98.20;;;;;;4140920;28;19925;-57
2022/08/07 09:23:08;;;;;;;;;;;30.40;98.90;;;;;;4156203;28;20031;-58
2022/08/07 09:25:52;;;;;;;;;;;30.50;98.90;;;;;;4140026;28;20007;-57
2022/08/07 09:28:05;;;;;;;;;;;30.60;98.00;;;;;;4134466;28;19933;-59
2022/08/07 09:30:51;;;;;;;;;;;30.80;98.50;;;;;;4130098;28;19925;-58
2022/08/07 09:33:16;;;;;;;;;;;31.00;97.90;;;;;;4126592;28;19926;-59
2022/08/07 09:35:50;;;;;;;;;;;31.00;97.60;;;;;;4140097;28;19972;-57
2022/08/07 09:38:10;;;;;;;;;;;31.30;97.00;;;;;;4136286;28;19929;-58
2022/08/07 09:40:22;;;;;;;;;;;31.20;96.60;;;;;;4142255;28;19921;-58
2022/08/07 09:42:28;;;;;;;;;;;31.10;96.90;;;;;;4145551;28;19988;-58
2022/08/07 09:44:47;;;;;;;;;;;31.00;96.30;;;;;;4138375;28;20024;-59
2022/08/07 09:47:29;;;;;;;;;;;30.90;97.30;;;;;;4137573;28;19951;-58
2022/08/07 09:50:12;;;;;;;;;;;30.60;96.40;;;;;;4135671;28;19967;-58
2022/08/07 09:52:22;;;;;;;;;;;30.60;97.20;;;;;;4141159;28;19921;-58
2022/08/07 09:54:42;;;;;;;;;;;30.80;97.30;;;;;;4139087;28;19971;-58
2022/08/07 09:57:06;;;;;;;;;;;30.70;97.30;;;;;;4141809;28;19968;-58
2022/08/07 09:59:28;;;;;;;;;;;30.70;97.30;;;;;;4136980;28;20477;-59
2022/08/07 10:01:38;;;;;;;;;;;30.90;97.30;;;;;;4139230;28;20000;-57
2022/08/07 10:04:18;;;;;;;;;;;30.70;97.60;;;;;;4138996;28;20340;-58
2022/08/07 10:06:45;;;;;;;;;;;30.70;97.20;;;;;;4133355;28;19922;-58
2022/08/07 10:09:08;;;;;;;;;;;30.60;96.90;;;;;;4145924;28;19929;-59
2022/08/07 10:11:11;;;;;;;;;;;30.80;96.60;;;;;;4133096;28;19929;-58
2022/08/07 10:13:29;;;;;;;;;;;30.70;96.60;;;;;;4134350;28;19925;-57
2022/08/07 10:15:57;;;;;;;;;;;30.80;97.10;;;;;;4131766;28;20369;-57
2022/08/07 10:18:01;;;;;;;;;;;30.70;96.10;;;;;;4144421;28;20409;-58
2022/08/07 10:20:18;;;;;;;;;;;31.00;96.10;;;;;;4141146;28;20037;-57
2022/08/07 10:22:55;;;;;;;;;;;30.70;95.60;;;;;;4142426;28;19921;-58
2022/08/07 10:25:17;;;;;;;;;;;30.80;96.20;;;;;;4129759;28;20332;-57
2022/08/07 10:27:27;;;;;;;;;;;31.50;95.90;;;;;;4129251;28;19930;-57
2022/08/07 10:29:44;;;;;;;;;;;31.30;95.60;;;;;;4129646;28;19921;-58
2022/08/07 10:32:11;;;;;;;;;;;31.00;96.40;;;;;;4132760;28;19971;-59
2022/08/07 10:34:36;;;;;;;;;;;30.90;96.50;;;;;;4142857;28;20379;-58
2022/08/07 10:36:42;;;;;;;;;;;31.00;96.10;;;;;;4140353;28;19921;-57
2022/08/07 10:38:44;;;;;;;;;;;31.20;96.20;;;;;;4129373;28;19921;-58
2022/08/07 10:40:54;;;;;;;;;;;31.10;96.00;;;;;;4130908;28;20012;-58
2022/08/07 10:43:01;;;;;;;;;;;31.20;95.30;;;;;;4134780;28;19921;-58
2022/08/07 10:45:12;;;;;;;;;;;31.20;95.70;;;;;;4141997;28;20396;-58
2022/08/07 10:47:35;;;;;;;;;;;31.00;95.40;;;;;;4132442;28;20345;-57
2022/08/07 10:50:15;;;;;;;;;;;30.80;95.10;;;;;;4138782;28;19976;-58
2022/08/07 10:52:23;;;;;;;;;;;31.00;95.40;;;;;;4134729;28;20409;-59
2022/08/07 10:54:52;;;;;;;;;;;31.30;96.00;;;;;;4138140;28;20310;-58
2022/08/07 10:57:14;;;;;;;;;;;31.10;95.00;;;;;;4132913;28;19972;-58
2022/08/07 10:59:36;;;;;;;;;;;31.40;95.10;;;;;;4146453;28;19972;-58
2022/08/07 11:01:50;;;;;;;;;;;31.20;95.20;;;;;;4144169;28;20380;-58
2022/08/07 11:04:15;;;;;;;;;;;31.20;95.00;;;;;;4147579;28;19991;-57
2022/08/07 11:06:40;;;;;;;;;;;31.40;95.30;;;;;;4148171;28;20382;-57
2022/08/07 11:08:50;;;;;;;;;;;31.50;94.60;;;;;;4148329;28;19921;-58
2022/08/07 11:10:58;;;;;;;;;;;31.80;95.10;;;;;;4141329;28;19925;-57
2022/08/07 11:13:19;;;;;;;;;;;31.70;94.40;;;;;;4130574;28;19972;-59
2022/08/07 11:15:45;;;;;;;;;;;31.80;93.60;;;;;;4133222;28;19976;-59
2022/08/07 11:17:56;;;;;;;;;;;32.00;93.80;;;;;;4140953;28;19925;-58
2022/08/07 11:20:04;;;;;;;;;;;31.70;93.50;;;;;;4137049;28;19930;-58
2022/08/07 11:22:11;;;;;;;;;;;31.50;94.10;;;;;;4148401;28;20282;-57
2022/08/07 11:24:48;;;;;;;;;;;31.70;94.40;;;;;;4132231;28;20490;-58
2022/08/07 11:27:09;;;;;;;;;;;31.90;93.70;;;;;;4143327;28;19921;-57
2022/08/07 11:29:17;;;;;;;;;;;31.50;93.60;;;;;;4138826;28;19957;-58
2022/08/07 11:31:50;;;;;;;;;;;31.90;94.30;;;;;;4147779;28;19921;-59
2022/08/07 11:33:59;;;;;;;;;;;31.70;93.40;;;;;;4146974;28;19925;-58
2022/08/07 11:36:12;;;;;;;;;;;31.60;94.00;;;;;;4141937;28;19976;-58
2022/08/07 11:38:18;;;;;;;;;;;31.90;93.80;;;;;;4140222;28;19921;-58
2022/08/07 11:40:25;;;;;;;;;;;32.20;93.50;;;;;;4131318;28;19925;-57
2022/08/07 11:42:28;;;;;;;;;;;32.50;93.30;;;;;;4146088;28;19928;-59
2022/08/07 11:44:31;;;;;;;;;;;32.50;92.90;;;;;;4135520;28;19968;-59
2022/08/07 11:46:52;;;;;;;;;;;32.30;93.20;;;;;;4142358;28;19925;-59
2022/08/07 11:49:01;;;;;;;;;;;32.30;93.00;;;;;;4137315;28;20447;-57
2022/08/07 11:51:39;;;;;;;;;;;31.80;92.20;;;;;;4131658;28;20429;-58
2022/08/07 11:53:59;;;;;;;;;;;32.00;93.80;;;;;;4147269;28;19925;-59
2022/08/07 11:56:35;;;;;;;;;;;32.30;92.50;;;;;;4141576;28;19929;-58
2022/08/07 11:58:40;;;;;;;;;;;32.40;92.00;;;;;;4140268;28;20378;-59
2022/08/07 12:01:07;;;;;;;;;;;32.30;92.80;;;;;;4146527;28;20451;-57
2022/08/07 12:03:25;;;;;;;;;;;32.20;92.50;;;;;;4136082;28;20157;-57
2022/08/07 12:05:44;;;;;;;;;;;32.20;92.10;;;;;;4144394;28;19968;-58
2022/08/07 12:07:52;;;;;;;;;;;32.50;92.50;;;;;;4138057;28;19976;-59
2022/08/07 12:10:30;;;;;;;;;;;32.50;92.50;;;;;;4147369;28;19925;-59
2022/08/07 12:12:32;;;;;;;;;;;32.40;91.90;;;;;;4135498;28;19922;-59
2022/08/07 12:14:57;;;;;;;;;;;32.40;91.70;;;;;;4142760;28;19972;-57
2022/08/07 12:17:07;;;;;;;;;;;32.30;92.10;;;;;;4143032;28;20008;-58
2022/08/07 12:19:32;;;;;;;;;;;32.30;92.00;;;;;;4147059;28;20207;-58
2022/08/07 12:21:46;;;;;;;;;;;32.60;92.00;;;;;;4133042;28;20340;-58
2022/08/07 12:24:20;;;;;;;;;;;32.70;92.10;;;;;;4137700;28;19925;-58
2022/08/07 12:26:41;;;;;;;;;;;33.00;91.20;;;;;;4146954;28;20312;-59
2022/08/07 12:28:54;;;;;;;;;;;32.80;91.70;;;;;;4147161;28;19925;-59
2022/08/07 12:31:00;;;;;;;;;;;32.20;91.10;;;;;;4145175;28;19925;-58
2022/08/07 12:33:05;;;;;;;;;;;32.10;91.30;;;;;;4144628;28;19971;-58
2022/08/07 12:35:11;;;;;;;;;;;32.00;91.40;;;;;;4130836;28;19929;-59
2022/08/07 12:37:15;;;;;;;;;;;32.00;91.10;;;;;;4130929;28;19926;-57
2022/08/07 12:39:29;;;;;;;;;;;32.00;91.90;;;;;;4133540;28;19961;-57
2022/08/07 12:41:45;;;;;;;;;;;32.00;91.60;;;;;;4143891;28;20015;-57
2022/08/07 12:43:53;;;;;;;;;;;31.60;91.40;;;;;;4142123;28;19921;-57
2022/08/07 12:46:12;;;;;;;;;;;31.60;91.80;;;;;;4145781;28;19944;-58
2022/08/07 12:48:33;;;;;;;;;;;31.40;91.90;;;;;;4135225;28;19921;-59
2022/08/07 12:50:57;;;;;;;;;;;31.00;91.40;;;;;;4145124;28;19968;-57
2022/08/07 12:53:11;;;;;;;;;;;31.00;91.70;;;;;;4146766;28;19929;-57
2022/08/07 12:55:49;;;;;;;;;;;30.60;92.40;;;;;;4136371;28;20017;-58
2022/08/07 12:58:05;;;;;;;;;;;30.80;92.30;;;;;;4130239;28;20016;-56
2022/08/07 13:00:09;;;;;;;;;;;30.50;92.30;;;;;;4137471;28;19935;-57